Time;durP1;ratioP1;P1;durP2;ratioP2;P2;SDS_P1;SDS_P2;PMS_P1;PMS_P2;Temp;Humidity;BMP_temperature;BMP_pressure;BME280_temperature;BME280_humidity;BME280_pressure;Samples;Min_cycle;Max_cycle;Signal;HPM_P1;HPM_P2
2021/04/07 00:00:35;;;;;;;1.20;0.97;;;8.30;56.70;;;;;;4360137;32;20086;-40
2021/04/07 00:03:02;;;;;;;5.00;2.70;;;8.30;56.70;;;;;;4360015;32;20063;-39
2021/04/07 00:05:34;;;;;;;2.83;1.90;;;8.30;56.60;;;;;;4360439;32;20154;-39
2021/04/07 00:08:01;;;;;;;3.67;2.33;;;8.30;56.50;;;;;;4359848;32;20166;-39
2021/04/07 00:10:37;;;;;;;9.47;1.70;;;8.30;56.50;;;;;;4358326;32;20159;-38
2021/04/07 00:13:04;;;;;;;3.33;1.73;;;8.30;56.60;;;;;;4359898;32;20106;-39
2021/04/07 00:15:32;;;;;;;2.80;1.53;;;8.30;56.40;;;;;;4358086;32;20569;-39
2021/04/07 00:18:01;;;;;;;6.17;2.83;;;8.30;56.40;;;;;;4359721;32;20098;-39
2021/04/07 00:20:28;;;;;;;5.03;2.13;;;8.40;56.30;;;;;;4360135;32;20179;-38
2021/04/07 00:22:55;;;;;;;5.23;3.10;;;8.40;56.20;;;;;;4359991;32;20518;-38
2021/04/07 00:25:22;;;;;;;5.27;3.20;;;8.30;56.10;;;;;;4358897;32;20227;-38
2021/04/07 00:28:00;;;;;;;4.20;2.08;;;8.30;56.10;;;;;;4358174;32;20058;-38
2021/04/07 00:30:29;;;;;;;2.93;1.53;;;8.30;56.00;;;;;;4360412;32;20631;-39
2021/04/07 00:32:56;;;;;;;4.00;1.40;;;8.30;56.00;;;;;;4359765;32;20062;-38
2021/04/07 00:35:22;;;;;;;1.47;1.10;;;8.30;56.00;;;;;;4353648;32;20145;-39
2021/04/07 00:37:49;;;;;;;1.92;1.37;;;8.30;56.00;;;;;;4344566;33;20122;-39
2021/04/07 00:40:16;;;;;;;2.03;1.37;;;8.40;56.10;;;;;;4343258;33;20200;-39
2021/04/07 00:42:47;;;;;;;1.57;1.23;;;8.40;56.00;;;;;;4342937;33;20078;-39
2021/04/07 00:45:14;;;;;;;3.30;1.90;;;8.40;55.80;;;;;;4343405;33;20066;-39
2021/04/07 00:47:41;;;;;;;0.77;0.53;;;8.40;55.70;;;;;;4344693;33;20069;-38
2021/04/07 00:50:09;;;;;;;3.93;2.73;;;8.40;55.60;;;;;;4342510;32;20082;-39
2021/04/07 00:52:35;;;;;;;2.77;1.63;;;8.40;55.50;;;;;;4344696;33;20146;-38
2021/04/07 00:55:03;;;;;;;1.37;0.87;;;8.40;55.50;;;;;;4344382;33;20077;-38
2021/04/07 00:57:30;;;;;;;1.60;0.93;;;8.50;55.50;;;;;;4343086;33;20090;-39
2021/04/07 00:59:56;;;;;;;2.93;0.90;;;8.40;55.30;;;;;;4343014;33;20070;-38
2021/04/07 01:02:23;;;;;;;2.87;1.20;;;8.40;55.20;;;;;;4344316;33;20077;-39
2021/04/07 01:04:50;;;;;;;1.83;1.03;;;8.40;55.10;;;;;;4319057;33;20090;-38
2021/04/07 01:07:17;;;;;;;1.87;1.00;;;8.40;55.10;;;;;;4330966;33;20645;-38
2021/04/07 01:09:43;;;;;;;1.83;0.80;;;8.40;55.10;;;;;;4330236;33;20063;-39
2021/04/07 01:12:11;;;;;;;1.30;1.10;;;8.40;55.20;;;;;;4330499;33;20067;-39
2021/04/07 01:14:38;;;;;;;5.30;1.33;;;8.40;55.80;;;;;;4344206;33;20596;-39
2021/04/07 01:17:05;;;;;;;2.90;1.20;;;8.40;55.00;;;;;;4344620;33;20067;-39
2021/04/07 01:19:32;;;;;;;1.80;1.17;;;8.40;55.00;;;;;;4344908;33;20440;-39
2021/04/07 01:21:58;;;;;;;1.60;0.50;;;8.40;55.00;;;;;;4344191;33;20079;-38
2021/04/07 01:24:25;;;;;;;0.80;0.60;;;8.40;54.80;;;;;;4344373;33;20067;-39
2021/04/07 01:26:52;;;;;;;6.50;1.50;;;8.40;54.80;;;;;;4344286;33;20063;-39
2021/04/07 01:29:19;;;;;;;1.47;0.70;;;8.40;54.60;;;;;;4342359;33;20550;-39
2021/04/07 01:31:48;;;;;;;4.70;2.30;;;8.40;55.50;;;;;;4344067;33;20121;-39
2021/04/07 01:34:31;;;;;;;1.23;0.90;;;8.40;55.00;;;;;;4343781;33;20061;-39
2021/04/07 01:36:58;;;;;;;3.37;1.40;;;8.40;55.00;;;;;;4342663;32;20069;-38
2021/04/07 01:39:27;;;;;;;1.50;1.20;;;8.40;55.00;;;;;;4343952;33;20161;-39
2021/04/07 01:41:53;;;;;;;3.63;1.37;;;8.40;54.90;;;;;;4343825;32;20101;-39
2021/04/07 01:44:21;;;;;;;2.80;1.70;;;8.40;54.90;;;;;;4343636;32;20172;-39
2021/04/07 01:46:48;;;;;;;4.37;1.47;;;8.40;54.70;;;;;;4342291;33;20082;-39
2021/04/07 01:49:15;;;;;;;2.43;1.03;;;8.40;54.50;;;;;;4342093;32;20070;-38
2021/04/07 01:51:42;;;;;;;3.30;1.80;;;8.30;54.50;;;;;;4341989;33;20516;-39
2021/04/07 01:54:13;;;;;;;3.07;1.67;;;8.30;54.70;;;;;;4343716;32;20062;-39
2021/04/07 01:56:47;;;;;;;1.77;0.67;;;8.30;54.80;;;;;;4343778;32;20094;-39
2021/04/07 01:59:14;;;;;;;2.87;1.40;;;8.30;54.90;;;;;;4341942;33;20090;-39
2021/04/07 02:01:40;;;;;;;2.67;1.10;;;8.30;54.80;;;;;;4343482;32;20070;-39
2021/04/07 02:04:07;;;;;;;2.80;1.40;;;8.30;54.70;;;;;;4343526;32;20078;-38
2021/04/07 02:06:33;;;;;;;0.57;0.37;;;8.30;54.70;;;;;;4343308;32;20066;-39
2021/04/07 02:09:00;;;;;;;1.23;1.03;;;8.30;54.80;;;;;;4342217;33;20062;-39
2021/04/07 02:11:26;;;;;;;2.13;1.27;;;8.40;54.80;;;;;;4343491;33;20526;-38
2021/04/07 02:13:53;;;;;;;4.77;1.13;;;8.30;54.70;;;;;;4342943;32;20561;-39
2021/04/07 02:16:20;;;;;;;2.70;1.63;;;8.30;54.70;;;;;;4343374;32;20079;-40
2021/04/07 02:18:46;;;;;;;3.33;1.90;;;8.20;54.80;;;;;;4343387;33;20487;-38
2021/04/07 02:21:13;;;;;;;3.43;1.80;;;8.20;54.90;;;;;;4343019;32;20086;-49
2021/04/07 02:23:39;;;;;;;2.80;1.40;;;8.10;55.00;;;;;;4342018;33;20063;-39
2021/04/07 02:26:06;;;;;;;5.23;1.27;;;8.10;55.00;;;;;;4343327;32;20496;-39
2021/04/07 02:28:34;;;;;;;0.30;0.30;;;8.10;55.10;;;;;;4343322;32;20539;-39
2021/04/07 02:31:00;;;;;;;0.47;0.20;;;8.10;55.30;;;;;;4354083;32;20070;-39
2021/04/07 02:33:27;;;;;;;0.70;0.50;;;8.10;55.30;;;;;;4343057;33;20149;-39
2021/04/07 02:35:54;;;;;;;2.77;0.90;;;8.10;55.20;;;;;;4341440;33;20106;-38
2021/04/07 02:38:20;;;;;;;2.87;1.13;;;8.20;55.10;;;;;;4341583;32;20074;-39
2021/04/07 02:40:47;;;;;;;3.60;1.10;;;8.20;55.00;;;;;;4343027;33;20164;-39
2021/04/07 02:43:13;;;;;;;6.20;1.90;;;8.20;55.10;;;;;;4342841;32;20150;-39
2021/04/07 02:45:40;;;;;;;1.57;0.77;;;8.20;55.00;;;;;;4343127;32;20519;-39
2021/04/07 02:48:07;;;;;;;2.23;0.80;;;8.30;55.00;;;;;;4343125;33;20189;-38
2021/04/07 02:50:33;;;;;;;2.77;1.10;;;8.30;54.80;;;;;;4343358;32;20059;-39
2021/04/07 02:53:00;;;;;;;0.60;0.60;;;8.30;54.60;;;;;;4343091;32;20054;-38
2021/04/07 02:55:26;;;;;;;3.90;1.10;;;8.30;54.80;;;;;;4343030;33;20574;-40
2021/04/07 02:57:53;;;;;;;3.93;2.03;;;8.30;54.70;;;;;;4342927;32;20070;-39
2021/04/07 03:00:20;;;;;;;4.67;1.73;;;8.30;54.80;;;;;;4343097;33;20078;-39
2021/04/07 03:02:47;;;;;;;2.83;1.40;;;8.20;54.60;;;;;;4342936;32;20089;-40
2021/04/07 03:05:14;;;;;;;3.97;1.00;;;8.20;54.80;;;;;;4342876;33;20168;-39
2021/04/07 03:07:41;;;;;;;1.87;1.10;;;8.20;55.00;;;;;;4343295;32;20070;-38
2021/04/07 03:10:09;;;;;;;3.60;2.50;;;8.20;55.00;;;;;;4342965;32;20082;-39
2021/04/07 03:12:36;;;;;;;2.03;1.30;;;8.30;55.10;;;;;;4343495;32;20523;-37
2021/04/07 03:15:11;;;;;;;2.10;0.57;;;8.30;54.80;;;;;;4345918;32;20071;-39
2021/04/07 03:17:38;;;;;;;4.60;1.40;;;8.30;54.80;;;;;;4345548;32;20067;-40
2021/04/07 03:20:08;;;;;;;3.37;1.90;;;8.20;54.60;;;;;;4345974;32;20488;-39
2021/04/07 03:22:35;;;;;;;2.77;1.83;;;8.30;54.70;;;;;;4345542;32;20466;-40
2021/04/07 03:25:04;;;;;;;2.43;0.97;;;8.30;54.60;;;;;;4345505;32;20066;-39
2021/04/07 03:27:30;;;;;;;4.13;1.00;;;8.30;54.50;;;;;;4345696;32;20091;-39
2021/04/07 03:29:58;;;;;;;3.80;1.03;;;8.30;54.60;;;;;;4345427;32;20067;-38
2021/04/07 03:32:26;;;;;;;2.30;0.83;;;8.40;54.70;;;;;;4344174;33;20082;-39
2021/04/07 03:34:53;;;;;;;3.87;2.33;;;8.40;54.60;;;;;;4334917;32;20069;-39
2021/04/07 03:37:19;;;;;;;4.53;1.60;;;8.50;54.80;;;;;;4359979;32;20078;-39
2021/04/07 03:39:46;;;;;;;1.37;1.03;;;8.50;54.60;;;;;;4358194;32;20567;-40
2021/04/07 03:42:13;;;;;;;4.83;1.77;;;8.50;54.50;;;;;;4360567;32;20141;-40
2021/04/07 03:44:39;;;;;;;2.97;1.30;;;8.50;54.60;;;;;;4360328;32;20564;-40
2021/04/07 03:47:05;;;;;;;2.83;1.33;;;8.60;54.60;;;;;;4360429;32;20063;-42
2021/04/07 03:49:32;;;;;;;1.23;0.83;;;8.70;54.60;;;;;;4360137;32;20478;-41
2021/04/07 03:51:58;;;;;;;9.60;2.97;;;8.70;54.50;;;;;;4360092;32;20157;-41
2021/04/07 03:54:26;;;;;;;3.30;1.63;;;8.80;54.40;;;;;;4360401;32;20157;-40
2021/04/07 03:56:54;;;;;;;1.80;0.50;;;8.80;54.10;;;;;;4360062;32;20074;-40
2021/04/07 03:59:20;;;;;;;4.07;2.00;;;8.90;54.00;;;;;;4358590;32;20059;-40
2021/04/07 04:01:47;;;;;;;7.90;1.57;;;8.90;53.80;;;;;;4360618;32;20075;-40
2021/04/07 04:04:13;;;;;;;2.07;1.20;;;8.90;53.60;;;;;;4358695;32;20090;-40
2021/04/07 04:06:44;;;;;;;3.00;1.17;;;9.00;53.50;;;;;;4359891;32;20507;-39
2021/04/07 04:09:13;;;;;;;4.80;2.10;;;9.10;53.50;;;;;;4359812;32;20157;-39
2021/04/07 04:11:39;;;;;;;1.62;0.85;;;9.10;53.10;;;;;;4359929;32;20065;-40
2021/04/07 04:14:05;;;;;;;3.40;1.30;;;9.20;52.90;;;;;;4359498;32;20066;-39
2021/04/07 04:16:32;;;;;;;1.42;0.98;;;9.20;52.80;;;;;;4359886;32;20066;-38
2021/04/07 04:18:59;;;;;;;4.23;1.40;;;9.30;52.70;;;;;;4359908;32;20158;-38
2021/04/07 04:21:25;;;;;;;1.47;0.93;;;9.40;52.60;;;;;;4358706;32;20055;-38
2021/04/07 04:23:52;;;;;;;1.83;0.87;;;9.40;52.30;;;;;;4359176;32;20050;-40
2021/04/07 04:26:18;;;;;;;3.07;1.07;;;9.60;52.20;;;;;;4359199;32;20491;-40
2021/04/07 04:28:45;;;;;;;4.55;1.65;;;9.60;52.00;;;;;;4358348;32;20069;-40
2021/04/07 04:31:11;;;;;;;6.47;3.53;;;9.80;51.80;;;;;;4357843;32;20116;-40
2021/04/07 04:33:38;;;;;;;8.83;4.07;;;9.90;51.60;;;;;;4358367;32;20058;-40
2021/04/07 04:36:05;;;;;;;8.37;3.77;;;10.00;51.50;;;;;;4349496;32;20064;-38
2021/04/07 04:38:31;;;;;;;5.62;3.40;;;10.20;51.60;;;;;;4343359;33;20185;-39
2021/04/07 04:40:58;;;;;;;8.48;2.95;;;10.30;51.30;;;;;;4344545;33;20087;-40
2021/04/07 04:43:24;;;;;;;2.95;1.52;;;10.50;51.20;;;;;;4344305;33;20074;-38
2021/04/07 04:45:51;;;;;;;1.90;0.70;;;10.70;50.90;;;;;;4344509;33;20093;-39
2021/04/07 04:48:17;;;;;;;0.57;0.43;;;10.80;50.20;;;;;;4344422;33;20062;-39
2021/04/07 04:50:43;;;;;;;6.05;2.35;;;10.90;49.40;;;;;;4344180;33;20067;-38
2021/04/07 04:53:10;;;;;;;2.97;1.73;;;11.00;49.20;;;;;;4344437;33;20069;-38
2021/04/07 04:55:36;;;;;;;12.93;4.18;;;11.10;49.10;;;;;;4344316;33;20536;-38
2021/04/07 04:58:03;;;;;;;0.60;0.30;;;11.20;49.10;;;;;;4344231;33;20059;-38
2021/04/07 05:00:30;;;;;;;1.70;1.17;;;11.30;48.40;;;;;;4343884;33;20063;-40
2021/04/07 05:02:56;;;;;;;1.35;1.25;;;11.30;47.80;;;;;;4344078;33;20155;-38
2021/04/07 05:05:23;;;;;;;5.37;1.70;;;11.30;47.40;;;;;;4342575;33;20083;-39
2021/04/07 05:07:49;;;;;;;5.15;2.20;;;11.30;47.60;;;;;;4344115;33;20479;-39
2021/04/07 05:10:16;;;;;;;2.20;1.27;;;11.40;47.70;;;;;;4344190;33;20078;-39
2021/04/07 05:12:42;;;;;;;1.92;0.85;;;11.40;47.40;;;;;;4342418;33;20086;-39
2021/04/07 05:15:10;;;;;;;3.72;1.87;;;11.50;47.50;;;;;;4344102;33;20471;-39
2021/04/07 05:17:36;;;;;;;2.85;1.40;;;11.60;47.50;;;;;;4344408;33;20158;-38
2021/04/07 05:20:05;;;;;;;4.87;2.00;;;11.60;47.20;;;;;;4343795;33;20142;-39
2021/04/07 05:22:32;;;;;;;7.25;1.90;;;11.70;47.40;;;;;;4343898;33;20108;-39
2021/04/07 05:24:58;;;;;;;3.55;1.37;;;11.80;47.00;;;;;;4343381;33;20147;-38
2021/04/07 05:27:25;;;;;;;5.25;1.98;;;11.90;46.90;;;;;;4344093;33;20055;-38
2021/04/07 05:29:51;;;;;;;4.97;2.12;;;11.90;46.70;;;;;;4344181;33;20047;-39
2021/04/07 05:32:18;;;;;;;6.72;2.22;;;12.00;46.60;;;;;;4342527;33;20063;-39
2021/04/07 05:34:45;;;;;;;3.60;2.42;;;12.10;46.30;;;;;;4345663;32;20047;-38
2021/04/07 05:37:11;;;;;;;4.35;2.00;;;12.20;46.00;;;;;;4358515;32;20514;-40
2021/04/07 05:39:38;;;;;;;4.82;2.42;;;12.30;46.00;;;;;;4359105;32;20074;-39
2021/04/07 05:42:05;;;;;;;3.87;2.42;;;12.40;46.10;;;;;;4358321;32;20058;-38
2021/04/07 05:44:31;;;;;;;5.03;1.00;;;12.50;45.40;;;;;;4356932;32;20522;-39
2021/04/07 05:46:58;;;;;;;2.92;2.62;;;12.70;45.70;;;;;;4358115;32;20070;-39
2021/04/07 05:49:28;;;;;;;7.55;3.20;;;12.80;44.70;;;;;;4358149;32;20545;-40
2021/04/07 05:51:54;;;;;;;3.92;2.95;;;12.80;44.00;;;;;;4358567;32;20153;-39
2021/04/07 05:54:21;;;;;;;5.15;2.90;;;12.80;43.60;;;;;;4358456;32;20089;-40
2021/04/07 05:56:47;;;;;;;6.20;3.35;;;12.80;43.60;;;;;;4358493;32;20527;-40
2021/04/07 05:59:14;;;;;;;5.40;3.67;;;12.90;43.70;;;;;;4358012;32;20094;-37
2021/04/07 06:01:41;;;;;;;4.80;3.12;;;12.90;44.10;;;;;;4359208;32;20069;-40
2021/04/07 06:04:08;;;;;;;6.40;3.28;;;13.10;43.60;;;;;;4356542;32;20082;-40
2021/04/07 06:06:34;;;;;;;9.98;4.75;;;13.20;43.60;;;;;;4358502;32;20117;-39
2021/04/07 06:09:01;;;;;;;20.67;4.65;;;13.40;43.60;;;;;;4356709;32;20551;-39
2021/04/07 06:11:27;;;;;;;41.83;5.62;;;13.50;43.20;;;;;;4358061;32;20058;-39
2021/04/07 06:13:53;;;;;;;56.67;7.25;;;13.70;43.30;;;;;;4356599;32;20055;-38
2021/04/07 06:16:20;;;;;;;10.18;3.05;;;14.10;43.30;;;;;;4356345;32;20142;-39
2021/04/07 06:18:47;;;;;;;49.15;5.45;;;14.40;42.80;;;;;;4358076;32;20572;-38
2021/04/07 06:21:13;;;;;;;83.25;9.27;;;14.50;42.30;;;;;;4356604;32;20071;-39
2021/04/07 06:23:40;;;;;;;86.07;10.98;;;14.60;42.40;;;;;;4358060;32;20478;-39
2021/04/07 06:26:06;;;;;;;75.55;6.97;;;14.70;42.20;;;;;;4328337;33;20082;-38
2021/04/07 06:28:33;;;;;;;21.70;3.87;;;14.80;42.20;;;;;;4340670;33;20090;-38
2021/04/07 06:30:59;;;;;;;64.10;8.20;;;14.90;41.80;;;;;;4340704;33;20070;-39
2021/04/07 06:33:29;;;;;;;20.48;4.10;;;15.00;42.10;;;;;;4340526;33;20261;-40
2021/04/07 06:36:06;;;;;;;41.50;5.95;;;15.10;41.80;;;;;;4340506;33;20198;-41
2021/04/07 06:38:33;;;;;;;56.17;6.82;;;15.30;41.50;;;;;;4329261;33;20063;-45
2021/04/07 06:41:00;;;;;;;69.03;7.57;;;15.40;41.40;;;;;;4340800;33;20157;-40
2021/04/07 06:43:29;;;;;;;56.83;7.93;;;15.60;41.50;;;;;;4340850;32;20074;-41
2021/04/07 06:45:56;;;;;;;23.92;5.15;;;15.70;40.80;;;;;;4340598;33;20078;-42
2021/04/07 06:48:22;;;;;;;28.77;5.22;;;15.80;39.90;;;;;;4341959;33;20079;-40
2021/04/07 06:50:51;;;;;;;22.42;4.95;;;15.70;39.70;;;;;;4343595;33;20082;-37
2021/04/07 06:53:18;;;;;;;12.98;3.45;;;15.70;39.40;;;;;;4343535;33;20140;-37
2021/04/07 06:55:45;;;;;;;22.60;4.60;;;15.60;39.30;;;;;;4332010;33;20612;-39
2021/04/07 06:58:12;;;;;;;40.28;6.35;;;15.40;39.30;;;;;;4343714;33;20161;-39
2021/04/07 07:00:40;;;;;;;29.70;4.93;;;15.10;39.40;;;;;;4343255;33;20552;-38
2021/04/07 07:03:12;;;;;;;16.95;3.97;;;14.80;39.70;;;;;;4348938;32;20073;-40
2021/04/07 07:05:48;;;;;;;23.75;3.37;;;14.50;40.30;;;;;;4361152;32;20498;-38
2021/04/07 07:08:17;;;;;;;52.58;7.37;;;14.40;40.80;;;;;;4361169;32;20078;-38
2021/04/07 07:10:49;;;;;;;14.50;3.20;;;14.30;41.40;;;;;;4359692;32;20101;-40
2021/04/07 07:13:21;;;;;;;21.77;4.57;;;14.30;41.30;;;;;;4359354;32;20106;-40
2021/04/07 07:15:48;;;;;;;8.95;3.22;;;14.40;41.30;;;;;;4359342;32;20090;-39
2021/04/07 07:18:25;;;;;;;34.10;4.82;;;14.40;41.40;;;;;;4372083;32;20082;-41
2021/04/07 07:20:52;;;;;;;26.60;4.60;;;14.50;41.10;;;;;;4360662;32;20145;-39
2021/04/07 07:23:31;;;;;;;28.02;5.57;;;14.60;41.10;;;;;;4360471;32;20511;-39
2021/04/07 07:26:06;;;;;;;14.93;4.05;;;14.60;40.30;;;;;;4360562;32;20090;-39
2021/04/07 07:28:55;;;;;;;8.03;3.53;;;14.40;40.60;;;;;;4360125;32;20073;-40
2021/04/07 07:31:27;;;;;;;28.27;5.82;;;14.30;41.00;;;;;;4360416;32;20161;-40
2021/04/07 07:34:01;;;;;;;28.27;4.35;;;14.30;41.10;;;;;;4358611;32;20616;-38
2021/04/07 07:36:28;;;;;;;27.50;5.53;;;14.20;41.10;;;;;;4360486;32;20152;-38
2021/04/07 07:38:57;;;;;;;11.38;3.22;;;14.00;40.70;;;;;;4358680;32;20529;-39
2021/04/07 07:41:26;;;;;;;25.20;4.10;;;13.90;40.80;;;;;;4358852;32;20522;-39
2021/04/07 07:43:53;;;;;;;17.52;4.25;;;13.70;40.60;;;;;;4360333;32;20102;-38
2021/04/07 07:46:23;;;;;;;12.27;3.10;;;13.50;40.70;;;;;;4360312;32;20076;-39
2021/04/07 07:48:49;;;;;;;18.60;3.87;;;13.30;41.30;;;;;;4358619;32;20155;-39
2021/04/07 07:51:21;;;;;;;19.42;3.15;;;13.10;41.70;;;;;;4360331;32;20098;-39
2021/04/07 07:53:49;;;;;;;49.80;6.82;;;13.00;41.80;;;;;;4358921;32;20067;-40
2021/04/07 07:56:18;;;;;;;37.88;4.90;;;13.00;42.50;;;;;;4358754;32;20064;-40
2021/04/07 07:58:49;;;;;;;49.28;5.62;;;12.90;41.90;;;;;;4358335;32;20074;-40
2021/04/07 08:01:16;;;;;;;34.58;5.95;;;12.90;42.40;;;;;;4360137;32;20062;-40
2021/04/07 08:03:44;;;;;;;23.83;4.03;;;13.00;42.10;;;;;;4359832;32;20074;-41
2021/04/07 08:06:11;;;;;;;25.73;4.18;;;13.00;43.10;;;;;;4360378;32;20065;-39
2021/04/07 08:08:38;;;;;;;33.25;5.05;;;13.00;42.10;;;;;;4359852;32;20092;-39
2021/04/07 08:11:05;;;;;;;27.92;5.15;;;12.90;42.10;;;;;;4360071;32;20113;-40
2021/04/07 08:13:43;;;;;;;27.35;4.53;;;13.00;42.50;;;;;;4359894;32;20073;-40
2021/04/07 08:16:16;;;;;;;16.65;3.00;;;13.00;42.40;;;;;;4359742;32;20073;-41
2021/04/07 08:18:45;;;;;;;12.68;3.12;;;13.10;41.90;;;;;;4359630;32;20583;-42
2021/04/07 08:21:16;;;;;;;22.95;6.20;;;13.20;42.20;;;;;;4346212;32;20821;-41
2021/04/07 08:23:44;;;;;;;22.58;3.50;;;13.40;42.20;;;;;;4359881;32;20101;-40
2021/04/07 08:26:10;;;;;;;25.42;3.37;;;13.50;41.80;;;;;;4359632;32;20147;-41
2021/04/07 08:28:40;;;;;;;32.33;3.62;;;13.60;41.10;;;;;;4346149;32;20078;-41
2021/04/07 08:31:14;;;;;;;38.13;5.95;;;13.70;40.60;;;;;;4359428;32;20542;-40
2021/04/07 08:34:10;;;;;;;13.95;1.98;;;13.80;40.80;;;;;;4303545;33;20075;-41
2021/04/07 08:36:36;;;;;;;30.25;4.50;;;13.90;40.10;;;;;;4323003;33;20074;-41
2021/04/07 08:39:09;;;;;;;16.70;2.00;;;14.10;40.20;;;;;;4315478;33;20098;-42
2021/04/07 08:41:35;;;;;;;26.15;3.28;;;14.20;40.10;;;;;;4327577;33;20067;-41
2021/04/07 08:44:02;;;;;;;7.75;2.00;;;14.50;40.30;;;;;;4327625;33;20059;-41
2021/04/07 08:46:42;;;;;;;31.10;3.20;;;14.70;39.60;;;;;;4327687;33;20109;-41
2021/04/07 08:49:30;;;;;;;7.55;3.22;;;15.00;39.60;;;;;;4303571;33;20064;-42
2021/04/07 08:51:56;;;;;;;10.52;2.62;;;15.40;39.30;;;;;;4297266;33;20095;-42
2021/04/07 08:54:23;;;;;;;24.33;3.65;;;15.70;38.70;;;;;;4286431;33;20087;-39
2021/04/07 08:56:56;;;;;;;12.75;1.70;;;16.00;37.40;;;;;;4298469;33;20150;-40
2021/04/07 08:59:26;;;;;;;34.80;3.67;;;16.10;35.70;;;;;;4298003;33;20578;-40
2021/04/07 09:02:07;;;;;;;28.80;2.70;;;16.00;35.80;;;;;;4286562;33;20773;-41
2021/04/07 09:04:35;;;;;;;13.48;2.42;;;16.00;35.70;;;;;;4310843;33;20067;-42
2021/04/07 09:07:02;;;;;;;11.27;2.70;;;15.90;36.10;;;;;;4326805;33;20140;-42
2021/04/07 09:09:37;;;;;;;25.12;3.33;;;15.80;35.70;;;;;;4327075;33;20179;-41
2021/04/07 09:12:05;;;;;;;;;;;15.80;36.30;;;;;;4314632;33;20071;-39
2021/04/07 09:14:31;;;;;;;8.50;1.98;;;15.80;36.00;;;;;;4302493;33;19997;-41
2021/04/07 09:17:04;;;;;;;6.60;1.95;;;15.80;35.70;;;;;;4302310;33;20152;-40
2021/04/07 09:19:34;;;;;;;24.67;3.55;;;15.60;35.80;;;;;;4327063;33;20162;-40
2021/04/07 09:22:10;;;;;;;38.42;4.45;;;15.60;35.90;;;;;;4316486;33;20076;-41
2021/04/07 09:24:40;;;;;;;9.23;2.10;;;15.50;37.00;;;;;;4342827;33;20066;-40
2021/04/07 09:27:08;;;;;;;7.00;2.12;;;15.50;36.40;;;;;;4343765;33;20077;-40
2021/04/07 09:29:41;;;;;;;19.17;2.62;;;15.40;35.90;;;;;;4343903;33;20074;-42
2021/04/07 09:32:16;;;;;;;10.05;2.25;;;15.30;36.30;;;;;;4343802;33;20582;-41
2021/04/07 09:34:43;;;;;;;15.02;2.78;;;15.10;35.70;;;;;;4345497;32;20089;-40
2021/04/07 09:37:10;;;;;;;23.80;2.87;;;14.90;36.60;;;;;;4357585;32;20065;-40
2021/04/07 09:39:37;;;;;;;37.42;4.18;;;14.70;37.10;;;;;;4345278;32;20088;-42
2021/04/07 09:42:04;;;;;;;13.95;2.90;;;14.60;37.50;;;;;;4358297;32;20545;-40
2021/04/07 09:44:31;;;;;;;84.93;7.65;;;14.50;37.60;;;;;;4357176;32;20074;-39
2021/04/07 09:46:59;;;;;;;18.75;3.17;;;14.40;38.10;;;;;;4357050;32;20061;-39
2021/04/07 09:49:30;;;;;;;28.17;4.53;;;14.40;38.20;;;;;;4359103;32;20149;-39
2021/04/07 09:51:57;;;;;;;26.20;3.85;;;14.30;38.00;;;;;;4358895;32;20151;-39
2021/04/07 09:54:39;;;;;;;16.83;3.20;;;14.30;38.40;;;;;;4358936;32;20498;-39
2021/04/07 09:57:06;;;;;;;51.10;4.70;;;14.30;38.50;;;;;;4357113;32;20065;-39
2021/04/07 09:59:47;;;;;;;23.60;3.53;;;14.40;39.40;;;;;;4358821;32;20080;-39
2021/04/07 10:02:24;;;;;;;27.62;4.93;;;14.70;39.00;;;;;;4358340;32;20070;-40
2021/04/07 10:04:51;;;;;;;7.12;1.70;;;14.90;37.90;;;;;;4358531;32;20067;-38
2021/04/07 10:07:19;;;;;;;21.40;2.72;;;15.00;36.90;;;;;;4358303;32;20176;-40
2021/04/07 10:09:59;;;;;;;10.60;2.45;;;15.00;37.10;;;;;;4357076;32;20081;-40
2021/04/07 10:12:28;;;;;;;31.23;4.72;;;15.00;37.00;;;;;;4358430;32;20078;-39
2021/04/07 10:15:05;;;;;;;41.92;3.28;;;15.00;37.20;;;;;;4358300;32;20565;-38
2021/04/07 10:17:40;;;;;;;19.95;3.50;;;15.00;37.20;;;;;;4358251;32;20075;-39
2021/04/07 10:20:11;;;;;;;44.53;4.32;;;15.00;36.60;;;;;;4357959;32;20108;-40
2021/04/07 10:22:39;;;;;;;21.95;3.55;;;15.00;37.10;;;;;;4356836;32;20144;-40
2021/04/07 10:27:38;;;;;;;19.50;2.20;;;15.20;37.80;;;;;;4358369;32;20063;-41
2021/04/07 10:30:08;;;;;;;43.20;4.40;;;15.30;37.00;;;;;;4358122;32;20181;-42
2021/04/07 10:32:54;;;;;;;49.92;5.12;;;15.50;37.00;;;;;;4357926;32;20106;-40
2021/04/07 10:35:28;;;;;;;25.35;2.65;;;15.70;36.80;;;;;;4350573;32;20120;-41
2021/04/07 10:38:04;;;;;;;32.47;3.40;;;15.90;36.50;;;;;;4343540;32;20086;-42
2021/04/07 10:40:34;;;;;;;17.42;2.60;;;16.00;35.70;;;;;;4342031;33;20071;-40
2021/04/07 10:43:19;;;;;;;11.93;2.17;;;16.00;35.30;;;;;;4342901;32;20091;-38
2021/04/07 10:46:07;;;;;;;24.15;3.85;;;15.90;35.40;;;;;;4343253;32;20166;-41
2021/04/07 10:48:34;;;;;;;42.03;5.53;;;15.90;35.70;;;;;;4343281;32;20062;-38
2021/04/07 10:51:01;;;;;;;35.95;3.25;;;16.00;36.00;;;;;;4341596;33;20067;-38
2021/04/07 10:53:41;;;;;;;7.85;1.85;;;16.10;35.80;;;;;;4341632;33;20069;-40
2021/04/07 10:56:16;;;;;;;31.65;3.15;;;16.10;35.20;;;;;;4341808;33;20081;-38
2021/04/07 10:58:43;;;;;;;36.40;3.55;;;16.00;35.40;;;;;;4343075;32;20193;-41
2021/04/07 11:01:10;;;;;;;42.55;3.60;;;16.00;35.80;;;;;;4343422;32;20581;-40
2021/04/07 11:03:36;;;;;;;14.55;1.73;;;16.00;35.80;;;;;;4343123;32;20507;-41
2021/04/07 11:06:03;;;;;;;32.00;3.20;;;16.00;35.70;;;;;;4340154;33;20075;-40
2021/04/07 11:08:38;;;;;;;29.05;3.08;;;16.00;35.50;;;;;;4340828;33;20094;-40
2021/04/07 11:11:05;;;;;;;29.73;3.17;;;15.90;35.70;;;;;;4340390;33;20082;-39
2021/04/07 11:13:32;;;;;;;21.65;2.55;;;15.80;35.90;;;;;;4340436;33;20102;-38
2021/04/07 11:16:09;;;;;;;42.80;3.62;;;15.70;36.20;;;;;;4328293;33;20069;-39
2021/04/07 11:18:39;;;;;;;15.20;2.10;;;15.70;36.60;;;;;;4296265;33;20069;-39
2021/04/07 11:21:07;;;;;;;18.45;3.33;;;15.70;36.90;;;;;;4284283;33;20079;-40
2021/04/07 11:23:35;;;;;;;27.23;4.72;;;15.80;36.60;;;;;;4296667;33;20182;-38
2021/04/07 11:26:06;;;;;;;21.45;3.60;;;15.90;36.60;;;;;;4296511;33;20218;-39
2021/04/07 11:28:33;;;;;;;27.58;3.65;;;15.90;36.40;;;;;;4296985;33;20064;-40
2021/04/07 11:31:15;;;;;;;25.40;5.55;;;15.80;36.50;;;;;;4296836;33;20155;-39
2021/04/07 11:33:44;;;;;;;10.57;2.05;;;15.60;36.60;;;;;;4297234;33;20615;-38
2021/04/07 11:39:10;;;;;;;27.08;3.80;;;15.20;37.20;;;;;;4313914;33;20552;-40
2021/04/07 11:41:51;;;;;;;14.95;3.30;;;15.00;37.80;;;;;;4302911;33;20068;-39
2021/04/07 11:46:44;;;;;;;7.53;2.70;;;14.70;38.30;;;;;;4301531;33;20117;-39
2021/04/07 11:49:11;;;;;;;35.13;4.18;;;14.50;38.50;;;;;;4323484;33;20738;-39
2021/04/07 11:51:39;;;;;;;33.35;3.58;;;14.40;38.80;;;;;;4345526;32;20549;-40
2021/04/07 11:54:06;;;;;;;40.15;6.03;;;14.30;39.10;;;;;;4343887;33;20098;-39
2021/04/07 11:56:33;;;;;;;22.70;2.62;;;14.30;39.50;;;;;;4332286;33;20062;-38
2021/04/07 11:59:00;;;;;;;31.00;4.45;;;14.20;39.80;;;;;;4345613;32;20554;-39
2021/04/07 12:01:27;;;;;;;31.77;4.18;;;14.30;40.00;;;;;;4343929;33;20149;-39
2021/04/07 12:03:54;;;;;;;35.38;4.62;;;14.30;39.90;;;;;;4344941;33;20109;-39
2021/04/07 12:06:21;;;;;;;58.65;5.68;;;14.30;40.00;;;;;;4345272;32;20058;-40
2021/04/07 12:08:48;;;;;;;13.75;2.28;;;14.40;40.20;;;;;;4345426;33;20148;-39
2021/04/07 12:11:14;;;;;;;5.12;1.92;;;14.40;39.90;;;;;;4344891;32;20511;-38
2021/04/07 12:13:41;;;;;;;10.80;2.55;;;14.30;39.80;;;;;;4331208;33;20054;-38
2021/04/07 12:16:07;;;;;;;14.60;2.80;;;14.30;40.00;;;;;;4344844;33;20152;-39
2021/04/07 12:18:34;;;;;;;40.95;6.85;;;14.20;40.20;;;;;;4343970;33;20119;-38
2021/04/07 12:21:00;;;;;;;17.17;2.62;;;14.10;40.50;;;;;;4345487;33;20067;-38
2021/04/07 12:23:27;;;;;;;47.75;5.95;;;14.10;40.60;;;;;;4344640;32;20077;-39
2021/04/07 12:25:53;;;;;;;16.42;3.83;;;14.10;40.80;;;;;;4345191;33;20121;-40
2021/04/07 12:28:22;;;;;;;13.65;2.12;;;14.10;41.00;;;;;;4344903;33;20079;-38
2021/04/07 12:30:49;;;;;;;19.80;3.45;;;14.20;40.90;;;;;;4344734;32;20077;-38
2021/04/07 12:33:25;;;;;;;10.88;2.60;;;14.40;40.90;;;;;;4344424;32;20149;-40
2021/04/07 12:35:53;;;;;;;20.33;2.62;;;14.40;40.60;;;;;;4353953;32;20066;-40
2021/04/07 12:38:19;;;;;;;40.17;4.32;;;14.50;40.50;;;;;;4358261;32;20095;-37
2021/04/07 12:40:52;;;;;;;31.85;3.35;;;14.50;40.40;;;;;;4359623;32;20077;-39
2021/04/07 12:43:19;;;;;;;70.15;8.15;;;14.60;40.60;;;;;;4359493;32;20608;-39
2021/04/07 12:45:45;;;;;;;34.13;4.07;;;14.70;40.80;;;;;;4358210;32;20150;-39
2021/04/07 12:48:12;;;;;;;50.38;4.45;;;14.90;40.70;;;;;;4357924;32;20083;-40
2021/04/07 12:50:39;;;;;;;15.23;2.80;;;15.10;40.60;;;;;;4359118;32;20094;-40
2021/04/07 12:53:05;;;;;;;70.32;7.37;;;15.30;40.00;;;;;;4357522;32;20062;-40
2021/04/07 12:55:32;;;;;;;17.58;2.30;;;15.40;39.80;;;;;;4359258;32;20075;-42
2021/04/07 12:58:02;;;;;;;15.13;2.53;;;15.60;39.50;;;;;;4359706;32;20055;-40
2021/04/07 13:00:29;;;;;;;6.53;1.65;;;15.80;39.00;;;;;;4359416;32;20594;-39